createdAt,value
2023-04-07T00:00:30.937Z,1.48
2023-04-07T00:02:57.757Z,1.52
2023-04-07T00:05:24.341Z,1.58
2023-04-07T00:07:56.476Z,1.73
2023-04-07T00:10:24.728Z,1.47
2023-04-07T00:12:51.489Z,1.75
2023-04-07T00:15:18.098Z,1.86
2023-04-07T00:17:44.714Z,1.63
2023-04-07T00:20:11.948Z,1.48
2023-04-07T00:22:38.653Z,1.64
2023-04-07T00:25:05.707Z,1.53
2023-04-07T00:27:32.246Z,1.60
2023-04-07T00:29:58.740Z,1.73
2023-04-07T00:32:25.538Z,1.46
2023-04-07T00:34:52.099Z,1.44
2023-04-07T00:37:19.399Z,1.25
2023-04-07T00:39:46.779Z,1.45
2023-04-07T00:42:13.664Z,1.50
2023-04-07T00:44:40.495Z,1.72
2023-04-07T00:47:07.063Z,1.84
2023-04-07T00:49:33.656Z,1.82
2023-04-07T00:52:01.192Z,1.94
2023-04-07T00:54:27.923Z,1.87
2023-04-07T00:56:54.484Z,1.76
2023-04-07T00:59:22.053Z,1.49
2023-04-07T01:04:47.329Z,1.56
2023-04-07T01:07:19.374Z,1.73
2023-04-07T01:10:12.662Z,1.51
2023-04-07T01:13:02.714Z,1.37
2023-04-07T01:15:33.568Z,1.43
2023-04-07T01:18:08.809Z,1.33
2023-04-07T01:26:17.524Z,1.33
2023-04-07T01:28:43.993Z,1.31
2023-04-07T01:43:40.979Z,1.84
2023-04-07T01:46:08.855Z,1.84
2023-04-07T01:48:36.927Z,1.85
2023-04-07T01:51:06.201Z,1.84
2023-04-07T01:53:37.745Z,1.61
2023-04-07T01:56:05.818Z,1.58
2023-04-07T01:58:32.777Z,1.31
2023-04-07T02:00:59.955Z,1.49
2023-04-07T02:03:47.138Z,1.70
2023-04-07T02:06:19.877Z,1.66
2023-04-07T02:08:51.939Z,1.33
2023-04-07T02:11:22.132Z,1.35
2023-04-07T02:13:49.989Z,1.29
2023-04-07T02:16:17.502Z,1.24
2023-04-07T02:18:46.898Z,1.44
2023-04-07T02:21:15.648Z,1.64
2023-04-07T02:23:42.250Z,1.74
2023-04-07T02:26:09.818Z,1.80
2023-04-07T02:28:36.320Z,1.67
2023-04-07T02:31:02.894Z,1.76
2023-04-07T02:33:29.450Z,1.64
2023-04-07T02:35:55.963Z,1.69
2023-04-07T02:38:22.494Z,1.41
2023-04-07T02:40:49.035Z,1.11
2023-04-07T02:43:16.577Z,1.35
2023-04-07T02:45:43.467Z,1.50
2023-04-07T02:48:09.984Z,1.45
2023-04-07T02:50:36.527Z,1.29
2023-04-07T02:53:03.049Z,1.24
2023-04-07T02:55:29.808Z,1.51
2023-04-07T02:57:56.366Z,1.45
2023-04-07T03:00:22.906Z,1.40
2023-04-07T03:02:49.628Z,1.54
2023-04-07T03:05:16.270Z,1.36
2023-04-07T03:07:42.808Z,1.43
2023-04-07T03:10:09.814Z,1.10
2023-04-07T03:12:36.320Z,1.14
2023-04-07T03:15:03.003Z,1.09
2023-04-07T03:17:29.581Z,1.27
2023-04-07T03:19:56.288Z,1.31
2023-04-07T03:22:22.852Z,1.54
2023-04-07T03:24:49.448Z,1.38
2023-04-07T03:27:17.534Z,1.27
2023-04-07T03:29:44.212Z,1.40
2023-04-07T03:32:10.772Z,1.27
2023-04-07T03:34:37.306Z,1.29
2023-04-07T03:37:03.866Z,1.47
2023-04-07T03:39:30.366Z,1.61
2023-04-07T03:41:57.842Z,1.71
2023-04-07T03:44:24.363Z,1.61
2023-04-07T03:46:51.020Z,1.70
2023-04-07T03:49:17.544Z,1.29
2023-04-07T03:51:44.125Z,1.13
2023-04-07T03:54:10.673Z,1.26
2023-04-07T03:56:37.439Z,1.18
2023-04-07T03:59:04.121Z,1.34
2023-04-07T04:01:31.453Z,1.21
2023-04-07T04:03:58.396Z,1.13
2023-04-07T04:06:26.586Z,1.16
2023-04-07T04:08:53.092Z,1.43
2023-04-07T04:11:19.886Z,1.32
2023-04-07T04:13:46.849Z,1.30
2023-04-07T04:16:15.093Z,1.38
2023-04-07T04:18:41.901Z,1.18
2023-04-07T04:21:08.930Z,1.28
2023-04-07T04:23:36.139Z,1.23
2023-04-07T04:26:03.970Z,1.29
2023-04-07T04:28:31.352Z,1.26
2023-04-07T04:30:57.880Z,1.11
2023-04-07T04:33:24.680Z,1.10
2023-04-07T04:35:51.417Z,1.07
2023-04-07T04:38:17.916Z,1.12
2023-04-07T04:40:44.914Z,0.84
2023-04-07T04:43:11.451Z,0.91
2023-04-07T04:45:38.053Z,1.08
2023-04-07T04:48:04.882Z,1.30
2023-04-07T04:50:31.443Z,1.22
2023-04-07T04:52:58.004Z,1.17
2023-04-07T04:55:24.539Z,1.21
2023-04-07T04:57:51.142Z,1.26
2023-04-07T05:02:58.999Z,1.38
2023-04-07T05:05:25.854Z,1.33
2023-04-07T05:07:52.366Z,1.40
2023-04-07T05:10:19.334Z,1.64
2023-04-07T05:12:45.886Z,1.37
2023-04-07T05:15:12.475Z,1.33
2023-04-07T05:17:39.098Z,1.51
2023-04-07T05:20:06.458Z,1.53
2023-04-07T05:22:33.062Z,1.39
2023-04-07T05:24:59.622Z,1.56
2023-04-07T05:27:26.331Z,1.67
2023-04-07T05:29:52.939Z,1.66
2023-04-07T05:32:19.758Z,1.75
2023-04-07T05:34:46.245Z,1.75
2023-04-07T05:37:12.727Z,1.63
2023-04-07T05:39:39.257Z,1.63
2023-04-07T05:42:06.251Z,1.59
2023-04-07T05:44:32.797Z,1.58
2023-04-07T05:49:45.971Z,1.47
2023-04-07T05:52:13.304Z,1.79
2023-04-07T05:54:43.057Z,1.89
2023-04-07T05:57:09.671Z,1.72
2023-04-07T05:59:36.776Z,2.02
2023-04-07T06:02:04.117Z,2.20
2023-04-07T06:04:30.777Z,2.56
2023-04-07T06:06:57.305Z,2.27
2023-04-07T06:09:24.272Z,2.37
2023-04-07T06:11:50.987Z,2.15
2023-04-07T06:14:18.338Z,1.95
2023-04-07T06:16:45.713Z,1.86
2023-04-07T06:19:12.336Z,1.74
2023-04-07T06:21:39.946Z,1.61
2023-04-07T06:24:07.174Z,1.79
2023-04-07T06:26:33.796Z,1.89
2023-04-07T06:29:00.355Z,2.03
2023-04-07T06:31:28.528Z,2.15
2023-04-07T06:33:55.504Z,2.14
2023-04-07T06:36:23.453Z,1.92
2023-04-07T06:38:50.638Z,2.04
2023-04-07T06:46:42.327Z,1.76
2023-04-07T06:49:08.900Z,1.90
2023-04-07T06:51:35.469Z,2.12
2023-04-07T06:54:02.047Z,2.33
2023-04-07T06:56:28.982Z,2.28
2023-04-07T06:58:55.755Z,2.40
2023-04-07T07:01:22.345Z,2.36
2023-04-07T07:03:49.127Z,2.11
2023-04-07T07:06:16.080Z,2.41
2023-04-07T07:08:42.626Z,2.42
2023-04-07T07:11:09.197Z,2.53
2023-04-07T07:13:35.896Z,2.44
2023-04-07T07:16:02.510Z,2.56
2023-04-07T07:18:31.565Z,2.62
2023-04-07T07:20:58.326Z,2.76
2023-04-07T07:23:24.847Z,2.78
2023-04-07T07:25:51.590Z,2.74
2023-04-07T07:28:18.493Z,2.71
2023-04-07T07:30:45.314Z,2.75
2023-04-07T07:38:37.659Z,2.80
2023-04-07T07:41:04.769Z,2.74
2023-04-07T07:43:31.284Z,3.08
2023-04-07T07:48:39.841Z,2.75
2023-04-07T07:53:41.595Z,2.96
2023-04-07T07:56:08.131Z,2.99
2023-04-07T07:58:34.643Z,3.00
2023-04-07T08:01:01.269Z,3.51
2023-04-07T08:03:27.898Z,3.59
2023-04-07T08:05:54.808Z,3.49
2023-04-07T08:08:21.351Z,3.68
2023-04-07T08:10:48.908Z,3.40
2023-04-07T08:13:15.483Z,3.21
2023-04-07T08:15:42.078Z,3.61
2023-04-07T08:18:08.800Z,4.06
2023-04-07T08:20:36.174Z,4.36
2023-04-07T08:25:36.892Z,4.04
2023-04-07T08:28:03.520Z,3.97
2023-04-07T08:30:30.024Z,3.87
2023-04-07T08:32:56.876Z,3.46
2023-04-07T08:35:23.521Z,3.30
2023-04-07T08:37:50.390Z,3.77
2023-04-07T08:40:17.590Z,3.65
2023-04-07T08:45:19.610Z,3.72
2023-04-07T08:47:48.148Z,4.14
2023-04-07T08:50:18.038Z,4.35
2023-04-07T08:52:49.569Z,4.36
2023-04-07T08:55:16.368Z,4.06
2023-04-07T08:57:43.613Z,3.66
2023-04-07T09:00:11.141Z,3.86
2023-04-07T09:02:40.704Z,4.01
2023-04-07T09:05:09.037Z,4.75
2023-04-07T09:07:36.703Z,5.10
2023-04-07T09:10:04.861Z,5.47
2023-04-07T09:12:32.425Z,5.57
2023-04-07T09:14:59.472Z,5.33
2023-04-07T09:17:27.672Z,4.79
2023-04-07T09:20:01.586Z,4.48
2023-04-07T09:22:54.323Z,4.40
2023-04-07T09:25:24.028Z,4.73
2023-04-07T09:27:57.871Z,4.94
2023-04-07T09:30:24.603Z,5.09
2023-04-07T09:32:51.765Z,4.43
2023-04-07T09:35:18.701Z,4.25
2023-04-07T09:38:01.427Z,4.27
2023-04-07T09:45:39.445Z,4.30
2023-04-07T09:50:49.733Z,5.05
2023-04-07T09:53:17.069Z,4.47
2023-04-07T09:55:44.207Z,4.21
2023-04-07T09:58:14.472Z,4.58
2023-04-07T10:00:42.417Z,5.50
2023-04-07T10:03:09.469Z,5.41
2023-04-07T10:05:36.787Z,4.63
2023-04-07T10:08:04.439Z,4.35
2023-04-07T10:10:41.884Z,4.32
2023-04-07T11:01:04.157Z,4.25
2023-04-07T11:03:34.116Z,4.23
2023-04-07T11:06:03.455Z,4.30
2023-04-07T11:08:38.892Z,4.45
2023-04-07T11:11:11.176Z,4.45
2023-04-07T11:13:41.392Z,4.37
2023-04-07T11:16:08.871Z,4.10
2023-04-07T11:18:37.398Z,4.22
2023-04-07T11:21:05.921Z,4.67
2023-04-07T11:23:43.963Z,4.99
2023-04-07T11:26:13.876Z,5.07
2023-04-07T11:28:52.815Z,4.60
2023-04-07T11:31:24.547Z,4.32
2023-04-07T11:33:55.400Z,4.82
2023-04-07T11:36:33.213Z,4.81
2023-04-07T11:39:00.797Z,4.40
2023-04-07T11:41:28.849Z,4.25
2023-04-07T11:44:09.972Z,4.36
2023-04-07T11:46:37.531Z,4.27
2023-04-07T11:49:15.899Z,4.29
2023-04-07T11:51:44.439Z,4.65
2023-04-07T11:54:11.447Z,4.61
2023-04-07T11:56:46.732Z,4.54
2023-04-07T11:59:25.932Z,4.43
2023-04-07T12:01:56.072Z,4.60
2023-04-07T12:04:24.065Z,4.87
2023-04-07T12:06:51.586Z,4.76
2023-04-07T12:09:32.503Z,4.78
2023-04-07T12:11:59.136Z,4.87
2023-04-07T12:14:27.864Z,4.83
2023-04-07T12:16:59.058Z,4.80
2023-04-07T12:19:28.287Z,4.80
2023-04-07T12:21:55.928Z,5.09
2023-04-07T12:24:23.793Z,5.53
2023-04-07T12:26:50.410Z,5.77
2023-04-07T12:29:19.988Z,5.44
2023-04-07T12:31:49.310Z,5.39
2023-04-07T12:34:16.895Z,5.27
2023-04-07T12:36:43.700Z,5.15
2023-04-07T12:39:10.400Z,5.17
2023-04-07T12:41:38.665Z,5.10
2023-04-07T12:44:05.473Z,5.11
2023-04-07T12:46:32.254Z,5.11
2023-04-07T12:48:58.837Z,5.18
2023-04-07T12:51:26.378Z,5.30
2023-04-07T12:53:54.286Z,5.16
2023-04-07T12:56:22.428Z,5.13
2023-04-07T12:58:49.058Z,5.03
2023-04-07T13:01:16.736Z,5.02
2023-04-07T13:03:43.801Z,5.07
2023-04-07T13:06:10.944Z,5.31
2023-04-07T13:08:38.423Z,5.42
2023-04-07T13:11:05.389Z,5.28
2023-04-07T13:13:32.034Z,5.18
2023-04-07T13:15:58.729Z,5.26
2023-04-07T13:18:25.785Z,5.57
2023-04-07T13:21:15.738Z,5.56
2023-04-07T13:23:43.376Z,5.78
2023-04-07T13:26:10.720Z,5.39
2023-04-07T13:28:37.443Z,5.21
2023-04-07T13:31:04.060Z,5.22
2023-04-07T13:33:30.897Z,5.07
2023-04-07T13:35:57.447Z,4.93
2023-04-07T13:38:23.992Z,4.73
2023-04-07T13:40:50.780Z,4.61
2023-04-07T13:43:18.997Z,4.57
2023-04-07T13:45:46.528Z,4.55
2023-04-07T13:48:13.638Z,4.44
2023-04-07T13:50:40.940Z,4.30
2023-04-07T13:53:07.602Z,4.12
2023-04-07T13:55:34.140Z,4.05
2023-04-07T13:58:00.687Z,3.97
2023-04-07T14:00:27.290Z,3.89
2023-04-07T14:02:56.118Z,3.89
2023-04-07T14:05:23.428Z,3.88
2023-04-07T14:07:50.975Z,3.88
2023-04-07T14:10:17.874Z,3.87
2023-04-07T14:12:44.409Z,3.82
2023-04-07T14:15:11.038Z,3.91
2023-04-07T14:17:37.625Z,3.99
2023-04-07T14:20:04.673Z,3.93
2023-04-07T14:22:31.385Z,3.77
2023-04-07T14:24:58.047Z,3.78
2023-04-07T14:27:24.556Z,3.60
2023-04-07T14:29:51.153Z,3.61
2023-04-07T14:32:17.665Z,3.56
2023-04-07T14:34:44.278Z,3.52
2023-04-07T14:37:11.798Z,3.56
2023-04-07T14:39:39.531Z,3.57
2023-04-07T14:42:06.191Z,3.58
2023-04-07T14:44:33.233Z,3.43
2023-04-07T14:47:00.174Z,3.36
2023-04-07T14:49:28.492Z,3.20
2023-04-07T14:51:55.079Z,3.02
2023-04-07T14:54:21.710Z,3.10
2023-04-07T14:56:48.276Z,3.17
2023-04-07T14:59:14.882Z,3.12
2023-04-07T15:01:41.500Z,3.19
2023-04-07T15:04:08.180Z,3.07
2023-04-07T15:06:34.775Z,3.01
2023-04-07T15:09:01.371Z,3.03
2023-04-07T15:11:28.014Z,2.97
2023-04-07T15:13:54.837Z,2.79
2023-04-07T15:16:21.446Z,2.80
2023-04-07T15:18:48.370Z,2.79
2023-04-07T15:21:15.867Z,2.86
2023-04-07T15:23:42.645Z,2.76
2023-04-07T15:26:09.788Z,2.78
2023-04-07T15:28:36.414Z,2.75
2023-04-07T15:31:03.774Z,2.65
2023-04-07T15:33:30.451Z,2.49
2023-04-07T15:35:57.284Z,2.46
2023-04-07T15:38:23.807Z,2.44
2023-04-07T15:40:50.408Z,2.40
2023-04-07T15:43:16.983Z,2.44
2023-04-07T15:45:44.613Z,2.49
2023-04-07T15:48:12.200Z,2.57
2023-04-07T15:50:38.971Z,2.64
2023-04-07T15:53:06.054Z,2.79
2023-04-07T15:55:33.952Z,3.20
2023-04-07T15:58:01.835Z,3.32
2023-04-07T16:00:30.008Z,3.57
2023-04-07T16:02:56.699Z,3.57
2023-04-07T16:05:30.674Z,3.58
2023-04-07T16:07:57.367Z,3.67
2023-04-07T16:10:24.507Z,3.63
2023-04-07T16:12:51.097Z,3.47
2023-04-07T16:15:32.399Z,3.52
2023-04-07T16:18:09.140Z,3.45
2023-04-07T16:20:35.997Z,3.31
2023-04-07T16:23:02.551Z,3.39
2023-04-07T16:25:30.062Z,3.19
2023-04-07T16:27:56.685Z,3.01
2023-04-07T16:30:25.093Z,2.74
2023-04-07T16:32:51.723Z,2.55
2023-04-07T16:35:18.276Z,2.47
2023-04-07T16:37:47.420Z,2.38
2023-04-07T16:40:14.168Z,2.34
2023-04-07T16:42:40.942Z,2.29
2023-04-07T16:45:08.609Z,2.23
2023-04-07T16:47:35.607Z,2.28
2023-04-07T16:50:03.869Z,2.28
2023-04-07T16:52:30.965Z,2.31
2023-04-07T16:54:58.156Z,2.22
2023-04-07T16:57:24.698Z,2.17
2023-04-07T16:59:51.219Z,2.12
2023-04-07T17:02:17.961Z,2.13
2023-04-07T17:04:44.673Z,2.07
2023-04-07T17:07:11.775Z,2.00
2023-04-07T17:09:38.838Z,2.00
2023-04-07T17:12:06.784Z,1.93
2023-04-07T17:14:33.796Z,1.91
2023-04-07T17:17:01.222Z,1.80
2023-04-07T17:19:28.068Z,1.77
2023-04-07T17:21:54.587Z,1.73
2023-04-07T17:24:21.278Z,1.70
2023-04-07T17:26:47.977Z,1.65
2023-04-07T17:29:15.948Z,1.59
2023-04-07T17:31:42.663Z,1.57
2023-04-07T17:34:10.164Z,1.54
2023-04-07T17:36:37.772Z,1.52
2023-04-07T17:39:05.354Z,1.53
2023-04-07T17:41:34.577Z,1.60
2023-04-07T17:44:01.879Z,1.67
2023-04-07T17:46:28.543Z,1.67
2023-04-07T17:48:57.567Z,1.64
2023-04-07T17:51:25.184Z,1.60
2023-04-07T17:53:53.524Z,1.56
2023-04-07T17:56:20.731Z,1.56
2023-04-07T17:58:47.550Z,1.57
2023-04-07T18:01:14.179Z,1.53
2023-04-07T18:03:40.853Z,1.53
2023-04-07T18:06:08.548Z,1.59
2023-04-07T18:08:35.226Z,1.67
2023-04-07T18:11:01.772Z,1.73
2023-04-07T18:13:28.307Z,1.78
2023-04-07T18:15:54.860Z,1.78
2023-04-07T18:18:21.596Z,1.82
2023-04-07T18:20:49.553Z,1.92
2023-04-07T18:23:16.078Z,1.98
2023-04-07T18:25:42.585Z,1.97
2023-04-07T18:28:09.157Z,1.85
2023-04-07T18:30:36.003Z,1.71
2023-04-07T18:33:02.579Z,1.66
2023-04-07T18:35:29.145Z,1.61
2023-04-07T18:37:56.026Z,1.61
2023-04-07T18:40:22.653Z,1.66
2023-04-07T18:42:49.192Z,1.70
2023-04-07T18:45:15.968Z,1.70
2023-04-07T18:47:42.576Z,1.77
2023-04-07T18:50:10.065Z,1.85
2023-04-07T18:52:36.670Z,1.96
2023-04-07T18:55:04.047Z,2.05
2023-04-07T18:57:30.592Z,2.20
2023-04-07T18:59:57.091Z,2.36
2023-04-07T19:02:23.867Z,2.40
2023-04-07T19:04:50.517Z,2.39
2023-04-07T19:07:17.059Z,2.41
2023-04-07T19:09:43.647Z,2.43
2023-04-07T19:12:11.342Z,2.29
2023-04-07T19:14:37.886Z,2.19
2023-04-07T19:17:04.483Z,1.97
2023-04-07T19:19:31.460Z,1.72
2023-04-07T19:21:58.012Z,1.61
2023-04-07T19:24:24.656Z,1.58
2023-04-07T19:26:52.589Z,1.60
2023-04-07T19:29:19.147Z,1.59
2023-04-07T19:31:45.784Z,1.68
2023-04-07T19:34:12.359Z,1.76
2023-04-07T19:36:38.867Z,1.64
2023-04-07T19:39:05.433Z,1.41
2023-04-07T19:41:32.181Z,1.20
2023-04-07T19:43:58.735Z,1.12
2023-04-07T19:46:25.418Z,1.07
2023-04-07T19:48:51.937Z,1.10
2023-04-07T19:51:18.465Z,1.08
2023-04-07T19:53:44.975Z,1.06
2023-04-07T19:56:13.828Z,1.03
2023-04-07T19:58:40.420Z,1.01
2023-04-07T20:01:15.601Z,0.94
2023-04-07T20:03:42.980Z,1.02
2023-04-07T20:06:09.738Z,1.03
2023-04-07T20:08:36.317Z,0.85
2023-04-07T20:11:02.858Z,0.82
2023-04-07T20:13:31.732Z,0.77
2023-04-07T20:15:59.257Z,0.87
2023-04-07T20:18:28.270Z,1.05
2023-04-07T20:21:07.455Z,0.91
2023-04-07T20:23:34.013Z,0.98
2023-04-07T20:26:01.657Z,0.87
2023-04-07T20:28:28.233Z,0.82
2023-04-07T20:30:54.812Z,0.86
2023-04-07T20:33:21.483Z,0.92
2023-04-07T20:35:48.099Z,0.81
2023-04-07T20:38:14.749Z,0.75
2023-04-07T20:40:41.676Z,0.75
2023-04-07T20:43:08.475Z,0.80
2023-04-07T20:45:35.563Z,0.90
2023-04-07T20:48:02.072Z,0.97
2023-04-07T20:50:28.881Z,0.85
2023-04-07T20:52:55.451Z,0.76
2023-04-07T20:55:22.296Z,0.75
2023-04-07T20:57:49.895Z,0.68
2023-04-07T21:00:18.709Z,0.65
2023-04-07T21:02:45.738Z,0.63
2023-04-07T21:05:12.383Z,0.65
2023-04-07T21:07:38.938Z,0.66
2023-04-07T21:10:06.246Z,0.66
2023-04-07T21:12:32.860Z,0.64
2023-04-07T21:14:59.597Z,0.61
2023-04-07T21:17:26.147Z,0.58
2023-04-07T21:19:52.688Z,0.56
2023-04-07T21:22:19.219Z,0.57
2023-04-07T21:24:45.747Z,0.61
2023-04-07T21:27:13.654Z,0.61
2023-04-07T21:29:42.464Z,0.62
2023-04-07T21:32:09.251Z,0.57
2023-04-07T21:34:35.818Z,0.59
2023-04-07T21:37:02.355Z,0.76
2023-04-07T21:39:28.932Z,1.12
2023-04-07T21:41:56.946Z,1.24
2023-04-07T21:44:23.497Z,1.23
2023-04-07T21:46:50.312Z,1.26
2023-04-07T21:49:21.929Z,1.30
2023-04-07T21:51:49.049Z,1.43
2023-04-07T21:54:15.685Z,1.42
2023-04-07T21:56:42.220Z,1.26
2023-04-07T21:59:08.850Z,1.09
2023-04-07T22:01:35.622Z,0.92
2023-04-07T22:04:02.443Z,0.92
2023-04-07T22:06:29.039Z,0.86
2023-04-07T22:09:01.617Z,0.78
2023-04-07T22:11:29.253Z,0.73
2023-04-07T22:13:56.126Z,0.74
2023-04-07T22:16:22.765Z,0.68
2023-04-07T22:18:49.746Z,0.63
2023-04-07T22:21:17.098Z,0.56
2023-04-07T22:23:44.418Z,0.49
2023-04-07T22:26:11.197Z,0.50
2023-04-07T22:28:37.781Z,0.52
2023-04-07T22:31:04.608Z,0.53
2023-04-07T22:33:31.219Z,0.55
2023-04-07T22:35:57.767Z,0.57
2023-04-07T22:38:24.331Z,0.58
2023-04-07T22:40:51.000Z,0.54
2023-04-07T22:43:17.592Z,0.46
2023-04-07T22:45:44.187Z,0.41
2023-04-07T22:48:10.922Z,0.40
2023-04-07T22:50:37.652Z,0.34
2023-04-07T22:53:04.177Z,0.25
2023-04-07T22:55:30.735Z,0.19
2023-04-07T22:57:57.245Z,0.14
2023-04-07T23:00:23.813Z,0.09
2023-04-07T23:02:50.549Z,0.08
2023-04-07T23:05:17.417Z,0.07
2023-04-07T23:07:44.412Z,0.03
2023-04-07T23:10:11.389Z,0.05
2023-04-07T23:12:37.996Z,0.03
2023-04-07T23:15:05.054Z,-0.03
2023-04-07T23:17:31.873Z,-0.06
2023-04-07T23:19:58.482Z,-0.04
2023-04-07T23:22:25.084Z,-0.05
2023-04-07T23:24:51.825Z,-0.05
2023-04-07T23:27:18.333Z,0.03
2023-04-07T23:29:44.901Z,0.05
2023-04-07T23:32:11.476Z,0.07
2023-04-07T23:34:38.037Z,0.12
2023-04-07T23:37:04.545Z,0.18
2023-04-07T23:39:31.342Z,0.23
2023-04-07T23:41:58.000Z,0.21
2023-04-07T23:44:24.511Z,0.23
2023-04-07T23:46:51.082Z,0.23
2023-04-07T23:49:17.642Z,0.23
2023-04-07T23:51:44.168Z,0.27
2023-04-07T23:54:11.145Z,0.29
2023-04-07T23:56:37.880Z,0.29
2023-04-07T23:59:04.425Z,0.29
